sensor_id;sensor_type;location;lat;lon;timestamp;temperature;humidity
71175;DHT22;58876;51.994;4.472;2023-10-31T00:00:13;11.46;88.50
71175;DHT22;58876;51.994;4.472;2023-10-31T00:02:38;11.60;88.99
71175;DHT22;58876;51.994;4.472;2023-10-31T00:05:04;11.58;88.87
71175;DHT22;58876;51.994;4.472;2023-10-31T00:07:30;11.65;88.52
71175;DHT22;58876;51.994;4.472;2023-10-31T00:09:55;11.67;88.45
71175;DHT22;58876;51.994;4.472;2023-10-31T00:12:21;11.62;88.32
71175;DHT22;58876;51.994;4.472;2023-10-31T00:14:46;11.70;88.32
71175;DHT22;58876;51.994;4.472;2023-10-31T00:17:12;11.71;88.25
71175;DHT22;58876;51.994;4.472;2023-10-31T00:19:37;11.63;88.22
71175;DHT22;58876;51.994;4.472;2023-10-31T00:22:03;11.73;88.35
71175;DHT22;58876;51.994;4.472;2023-10-31T00:24:28;11.73;88.20
71175;DHT22;58876;51.994;4.472;2023-10-31T00:26:54;11.66;88.24
71175;DHT22;58876;51.994;4.472;2023-10-31T00:29:19;11.69;88.73
71175;DHT22;58876;51.994;4.472;2023-10-31T00:31:45;11.66;88.49
71175;DHT22;58876;51.994;4.472;2023-10-31T00:34:10;11.62;88.82
71175;DHT22;58876;51.994;4.472;2023-10-31T00:36:36;11.71;88.93
71175;DHT22;58876;51.994;4.472;2023-10-31T00:39:01;11.76;88.69
71175;DHT22;58876;51.994;4.472;2023-10-31T00:41:27;11.77;88.57
71175;DHT22;58876;51.994;4.472;2023-10-31T00:43:52;11.80;88.88
71175;DHT22;58876;51.994;4.472;2023-10-31T00:46:17;11.91;88.84
71175;DHT22;58876;51.994;4.472;2023-10-31T00:48:43;11.91;88.70
71175;DHT22;58876;51.994;4.472;2023-10-31T00:51:08;12.00;88.53
71175;DHT22;58876;51.994;4.472;2023-10-31T00:53:34;12.07;88.17
71175;DHT22;58876;51.994;4.472;2023-10-31T00:55:59;12.13;88.11
71175;DHT22;58876;51.994;4.472;2023-10-31T00:58:25;12.01;88.27
71175;DHT22;58876;51.994;4.472;2023-10-31T01:00:50;11.77;88.20
71175;DHT22;58876;51.994;4.472;2023-10-31T01:03:15;11.76;88.61
71175;DHT22;58876;51.994;4.472;2023-10-31T01:05:41;11.67;88.97
71175;DHT22;58876;51.994;4.472;2023-10-31T01:08:06;11.76;88.92
71175;DHT22;58876;51.994;4.472;2023-10-31T01:10:32;11.71;89.13
71175;DHT22;58876;51.994;4.472;2023-10-31T01:12:57;11.86;88.91
71175;DHT22;58876;51.994;4.472;2023-10-31T01:15:23;11.90;88.87
71175;DHT22;58876;51.994;4.472;2023-10-31T01:17:48;11.97;88.67
71175;DHT22;58876;51.994;4.472;2023-10-31T01:20:14;11.95;88.50
71175;DHT22;58876;51.994;4.472;2023-10-31T01:22:39;11.97;88.32
71175;DHT22;58876;51.994;4.472;2023-10-31T01:25:05;11.74;88.83
71175;DHT22;58876;51.994;4.472;2023-10-31T01:27:31;11.71;89.13
71175;DHT22;58876;51.994;4.472;2023-10-31T01:29:56;11.80;89.07
71175;DHT22;58876;51.994;4.472;2023-10-31T01:32:21;11.71;89.46
71175;DHT22;58876;51.994;4.472;2023-10-31T01:34:47;11.86;89.31
71175;DHT22;58876;51.994;4.472;2023-10-31T01:37:12;11.84;88.98
71175;DHT22;58876;51.994;4.472;2023-10-31T01:39:39;11.94;89.04
71175;DHT22;58876;51.994;4.472;2023-10-31T01:42:04;11.91;88.88
71175;DHT22;58876;51.994;4.472;2023-10-31T01:44:30;11.89;88.81
71175;DHT22;58876;51.994;4.472;2023-10-31T01:46:55;11.93;88.61
71175;DHT22;58876;51.994;4.472;2023-10-31T01:49:21;11.80;88.59
71175;DHT22;58876;51.994;4.472;2023-10-31T01:51:47;11.83;88.97
71175;DHT22;58876;51.994;4.472;2023-10-31T01:54:14;11.89;88.61
71175;DHT22;58876;51.994;4.472;2023-10-31T01:56:41;11.79;88.45
71175;DHT22;58876;51.994;4.472;2023-10-31T01:59:08;11.79;88.59
71175;DHT22;58876;51.994;4.472;2023-10-31T02:01:38;11.71;88.37
71175;DHT22;58876;51.994;4.472;2023-10-31T02:04:05;11.59;89.11
71175;DHT22;58876;51.994;4.472;2023-10-31T02:06:30;11.59;89.23
71175;DHT22;58876;51.994;4.472;2023-10-31T02:08:56;11.69;89.49
71175;DHT22;58876;51.994;4.472;2023-10-31T02:11:22;11.65;89.77
71175;DHT22;58876;51.994;4.472;2023-10-31T02:13:47;11.74;89.78
71175;DHT22;58876;51.994;4.472;2023-10-31T02:16:13;11.81;89.74
71175;DHT22;58876;51.994;4.472;2023-10-31T02:18:38;11.77;89.66
71175;DHT22;58876;51.994;4.472;2023-10-31T02:21:04;11.76;90.06
71175;DHT22;58876;51.994;4.472;2023-10-31T02:23:30;11.80;89.94
71175;DHT22;58876;51.994;4.472;2023-10-31T02:25:55;11.83;89.89
71175;DHT22;58876;51.994;4.472;2023-10-31T02:28:20;11.89;90.04
71175;DHT22;58876;51.994;4.472;2023-10-31T02:30:46;11.83;89.77
71175;DHT22;58876;51.994;4.472;2023-10-31T02:33:11;11.74;90.00
71175;DHT22;58876;51.994;4.472;2023-10-31T02:35:37;11.74;90.11
71175;DHT22;58876;51.994;4.472;2023-10-31T02:38:02;11.73;90.18
71175;DHT22;58876;51.994;4.472;2023-10-31T02:40:28;11.71;90.06
71175;DHT22;58876;51.994;4.472;2023-10-31T02:42:54;11.76;90.10
71175;DHT22;58876;51.994;4.472;2023-10-31T02:45:19;11.76;89.66
71175;DHT22;58876;51.994;4.472;2023-10-31T02:47:45;11.69;89.39
71175;DHT22;58876;51.994;4.472;2023-10-31T02:50:10;11.69;89.18
71175;DHT22;58876;51.994;4.472;2023-10-31T02:52:36;11.63;89.12
71175;DHT22;58876;51.994;4.472;2023-10-31T02:55:01;11.62;89.23
71175;DHT22;58876;51.994;4.472;2023-10-31T02:57:27;11.63;89.24
71175;DHT22;58876;51.994;4.472;2023-10-31T02:59:53;11.71;88.83
71175;DHT22;58876;51.994;4.472;2023-10-31T03:02:18;11.71;89.05
71175;DHT22;58876;51.994;4.472;2023-10-31T03:04:43;11.69;88.19
71175;DHT22;58876;51.994;4.472;2023-10-31T03:07:09;11.44;87.83
71175;DHT22;58876;51.994;4.472;2023-10-31T03:09:34;11.43;88.15
71175;DHT22;58876;51.994;4.472;2023-10-31T03:12:00;11.55;87.81
71175;DHT22;58876;51.994;4.472;2023-10-31T03:14:25;11.50;87.67
71175;DHT22;58876;51.994;4.472;2023-10-31T03:16:51;11.44;87.68
71175;DHT22;58876;51.994;4.472;2023-10-31T03:19:16;11.26;87.59
71175;DHT22;58876;51.994;4.472;2023-10-31T03:21:42;11.35;88.18
71175;DHT22;58876;51.994;4.472;2023-10-31T03:24:07;11.40;88.01
71175;DHT22;58876;51.994;4.472;2023-10-31T03:26:33;11.55;87.89
71175;DHT22;58876;51.994;4.472;2023-10-31T03:28:58;11.58;87.68
71175;DHT22;58876;51.994;4.472;2023-10-31T03:31:24;11.69;87.45
71175;DHT22;58876;51.994;4.472;2023-10-31T03:33:50;11.65;87.31
71175;DHT22;58876;51.994;4.472;2023-10-31T03:36:17;11.65;87.30
71175;DHT22;58876;51.994;4.472;2023-10-31T03:38:42;11.71;87.31
71175;DHT22;58876;51.994;4.472;2023-10-31T03:41:08;11.81;87.19
71175;DHT22;58876;51.994;4.472;2023-10-31T03:43:33;11.81;86.96
71175;DHT22;58876;51.994;4.472;2023-10-31T03:45:59;11.69;86.97
71175;DHT22;58876;51.994;4.472;2023-10-31T03:48:25;11.65;87.63
71175;DHT22;58876;51.994;4.472;2023-10-31T03:50:51;11.71;87.70
71175;DHT22;58876;51.994;4.472;2023-10-31T03:53:16;11.59;87.55
71175;DHT22;58876;51.994;4.472;2023-10-31T03:55:42;11.62;87.61
71175;DHT22;58876;51.994;4.472;2023-10-31T03:58:08;11.60;87.54
71175;DHT22;58876;51.994;4.472;2023-10-31T04:00:33;11.67;87.50
71175;DHT22;58876;51.994;4.472;2023-10-31T04:02:59;11.66;87.20
71175;DHT22;58876;51.994;4.472;2023-10-31T04:05:24;11.63;87.05
71175;DHT22;58876;51.994;4.472;2023-10-31T04:07:50;11.67;87.06
71175;DHT22;58876;51.994;4.472;2023-10-31T04:10:16;11.73;86.79
71175;DHT22;58876;51.994;4.472;2023-10-31T04:12:42;11.69;86.48
71175;DHT22;58876;51.994;4.472;2023-10-31T04:15:08;11.71;86.78
71175;DHT22;58876;51.994;4.472;2023-10-31T04:17:34;11.71;86.57
71175;DHT22;58876;51.994;4.472;2023-10-31T04:19:59;11.66;86.53
71175;DHT22;58876;51.994;4.472;2023-10-31T04:22:25;11.62;86.73
71175;DHT22;58876;51.994;4.472;2023-10-31T04:24:50;11.67;86.97
71175;DHT22;58876;51.994;4.472;2023-10-31T04:27:16;11.70;86.58
71175;DHT22;58876;51.994;4.472;2023-10-31T04:29:42;11.69;86.83
71175;DHT22;58876;51.994;4.472;2023-10-31T04:32:07;11.62;86.72
71175;DHT22;58876;51.994;4.472;2023-10-31T04:34:32;11.69;86.85
71175;DHT22;58876;51.994;4.472;2023-10-31T04:36:58;11.60;86.57
71175;DHT22;58876;51.994;4.472;2023-10-31T04:39:24;11.62;86.64
71175;DHT22;58876;51.994;4.472;2023-10-31T04:41:49;11.47;86.51
71175;DHT22;58876;51.994;4.472;2023-10-31T04:44:14;11.35;86.99
71175;DHT22;58876;51.994;4.472;2023-10-31T04:46:40;11.38;87.03
71175;DHT22;58876;51.994;4.472;2023-10-31T04:49:05;11.42;87.00
71175;DHT22;58876;51.994;4.472;2023-10-31T04:51:37;11.49;86.83
71175;DHT22;58876;51.994;4.472;2023-10-31T04:54:04;11.44;86.79
71175;DHT22;58876;51.994;4.472;2023-10-31T04:56:30;11.46;86.90
71175;DHT22;58876;51.994;4.472;2023-10-31T04:58:56;11.49;86.87
71175;DHT22;58876;51.994;4.472;2023-10-31T05:01:21;11.55;86.75
71175;DHT22;58876;51.994;4.472;2023-10-31T05:03:47;11.62;86.45
71175;DHT22;58876;51.994;4.472;2023-10-31T05:06:12;11.62;86.57
71175;DHT22;58876;51.994;4.472;2023-10-31T05:08:38;11.60;86.47
71175;DHT22;58876;51.994;4.472;2023-10-31T05:11:04;11.52;86.60
71175;DHT22;58876;51.994;4.472;2023-10-31T05:13:29;11.59;86.57
71175;DHT22;58876;51.994;4.472;2023-10-31T05:15:55;11.55;86.45
71175;DHT22;58876;51.994;4.472;2023-10-31T05:18:21;11.49;86.94
71175;DHT22;58876;51.994;4.472;2023-10-31T05:20:46;11.49;86.96
71175;DHT22;58876;51.994;4.472;2023-10-31T05:23:12;11.53;86.94
71175;DHT22;58876;51.994;4.472;2023-10-31T05:25:39;11.58;87.05
71175;DHT22;58876;51.994;4.472;2023-10-31T05:28:04;11.59;86.95
71175;DHT22;58876;51.994;4.472;2023-10-31T05:30:30;11.53;86.79
71175;DHT22;58876;51.994;4.472;2023-10-31T05:32:55;11.55;87.12
71175;DHT22;58876;51.994;4.472;2023-10-31T05:35:21;11.53;87.22
71175;DHT22;58876;51.994;4.472;2023-10-31T05:37:47;11.52;87.19
71175;DHT22;58876;51.994;4.472;2023-10-31T05:40:13;11.46;86.96
71175;DHT22;58876;51.994;4.472;2023-10-31T05:42:39;11.52;87.45
71175;DHT22;58876;51.994;4.472;2023-10-31T05:45:05;11.46;87.35
71175;DHT22;58876;51.994;4.472;2023-10-31T05:47:31;11.47;87.23
71175;DHT22;58876;51.994;4.472;2023-10-31T05:49:58;11.42;87.19
71175;DHT22;58876;51.994;4.472;2023-10-31T05:52:27;11.42;87.36
71175;DHT22;58876;51.994;4.472;2023-10-31T05:54:53;11.42;87.56
71175;DHT22;58876;51.994;4.472;2023-10-31T05:57:18;11.47;87.69
71175;DHT22;58876;51.994;4.472;2023-10-31T05:59:44;11.42;87.57
71175;DHT22;58876;51.994;4.472;2023-10-31T06:02:09;11.28;88.18
71175;DHT22;58876;51.994;4.472;2023-10-31T06:04:35;11.33;88.45
71175;DHT22;58876;51.994;4.472;2023-10-31T06:07:01;11.22;88.30
71175;DHT22;58876;51.994;4.472;2023-10-31T06:09:27;11.16;88.58
71175;DHT22;58876;51.994;4.472;2023-10-31T06:11:53;11.26;88.64
71175;DHT22;58876;51.994;4.472;2023-10-31T06:14:18;11.31;88.45
71175;DHT22;58876;51.994;4.472;2023-10-31T06:16:44;11.29;88.27
71175;DHT22;58876;51.994;4.472;2023-10-31T06:19:10;11.23;88.31
71175;DHT22;58876;51.994;4.472;2023-10-31T06:21:36;11.19;88.18
71175;DHT22;58876;51.994;4.472;2023-10-31T06:24:04;11.18;88.22
71175;DHT22;58876;51.994;4.472;2023-10-31T06:26:29;11.16;88.45
71175;DHT22;58876;51.994;4.472;2023-10-31T06:28:56;11.12;88.49
71175;DHT22;58876;51.994;4.472;2023-10-31T06:31:21;11.14;88.43
71175;DHT22;58876;51.994;4.472;2023-10-31T06:33:46;11.16;88.42
71175;DHT22;58876;51.994;4.472;2023-10-31T06:36:12;11.25;88.13
71175;DHT22;58876;51.994;4.472;2023-10-31T06:38:37;11.18;88.11
71175;DHT22;58876;51.994;4.472;2023-10-31T06:41:03;11.16;88.00
71175;DHT22;58876;51.994;4.472;2023-10-31T06:43:29;11.09;88.08
71175;DHT22;58876;51.994;4.472;2023-10-31T06:45:54;11.16;88.39
71175;DHT22;58876;51.994;4.472;2023-10-31T06:48:20;11.19;88.19
71175;DHT22;58876;51.994;4.472;2023-10-31T06:50:46;11.31;88.13
71175;DHT22;58876;51.994;4.472;2023-10-31T06:53:11;11.35;87.89
71175;DHT22;58876;51.994;4.472;2023-10-31T06:55:37;11.39;88.03
71175;DHT22;58876;51.994;4.472;2023-10-31T06:58:02;11.53;87.96
71175;DHT22;58876;51.994;4.472;2023-10-31T07:00:27;11.63;87.68
71175;DHT22;58876;51.994;4.472;2023-10-31T07:02:53;11.79;87.57
71175;DHT22;58876;51.994;4.472;2023-10-31T07:05:18;11.77;87.46
71175;DHT22;58876;51.994;4.472;2023-10-31T07:07:46;11.71;87.75
71175;DHT22;58876;51.994;4.472;2023-10-31T07:10:12;11.65;88.34
71175;DHT22;58876;51.994;4.472;2023-10-31T07:12:38;11.65;88.22
71175;DHT22;58876;51.994;4.472;2023-10-31T07:15:04;11.62;88.64
71175;DHT22;58876;51.994;4.472;2023-10-31T07:17:30;11.59;88.65
71175;DHT22;58876;51.994;4.472;2023-10-31T07:19:56;11.53;88.81
71175;DHT22;58876;51.994;4.472;2023-10-31T07:22:21;11.63;88.88
71175;DHT22;58876;51.994;4.472;2023-10-31T07:24:50;11.62;88.36
71175;DHT22;58876;51.994;4.472;2023-10-31T07:27:15;11.65;88.78
71175;DHT22;58876;51.994;4.472;2023-10-31T07:29:41;11.65;88.63
71175;DHT22;58876;51.994;4.472;2023-10-31T07:32:10;11.67;88.50
71175;DHT22;58876;51.994;4.472;2023-10-31T07:34:35;11.74;88.74
71175;DHT22;58876;51.994;4.472;2023-10-31T07:37:01;11.87;88.43
71175;DHT22;58876;51.994;4.472;2023-10-31T07:39:27;11.83;88.50
71175;DHT22;58876;51.994;4.472;2023-10-31T07:41:52;11.89;88.50
71175;DHT22;58876;51.994;4.472;2023-10-31T07:44:17;11.89;88.35
71175;DHT22;58876;51.994;4.472;2023-10-31T07:46:43;11.97;88.24
71175;DHT22;58876;51.994;4.472;2023-10-31T07:49:08;12.01;88.16
71175;DHT22;58876;51.994;4.472;2023-10-31T07:51:34;12.05;87.91
71175;DHT22;58876;51.994;4.472;2023-10-31T07:53:59;12.07;88.10
71175;DHT22;58876;51.994;4.472;2023-10-31T07:56:25;12.11;87.98
71175;DHT22;58876;51.994;4.472;2023-10-31T07:58:51;12.11;87.62
71175;DHT22;58876;51.994;4.472;2023-10-31T08:01:17;12.11;87.59
71175;DHT22;58876;51.994;4.472;2023-10-31T08:03:43;12.18;87.73
71175;DHT22;58876;51.994;4.472;2023-10-31T08:06:10;12.25;87.44
71175;DHT22;58876;51.994;4.472;2023-10-31T08:08:36;12.27;87.32
71175;DHT22;58876;51.994;4.472;2023-10-31T08:11:02;12.38;87.39
71175;DHT22;58876;51.994;4.472;2023-10-31T08:13:29;12.45;87.27
71175;DHT22;58876;51.994;4.472;2023-10-31T08:15:54;12.38;87.50
71175;DHT22;58876;51.994;4.472;2023-10-31T08:18:21;12.44;87.75
71175;DHT22;58876;51.994;4.472;2023-10-31T08:20:47;12.69;87.86
71175;DHT22;58876;51.994;4.472;2023-10-31T08:23:15;12.80;87.50
71175;DHT22;58876;51.994;4.472;2023-10-31T08:25:40;12.93;87.15
71175;DHT22;58876;51.994;4.472;2023-10-31T08:28:06;13.20;87.00
71175;DHT22;58876;51.994;4.472;2023-10-31T08:30:32;13.24;86.49
71175;DHT22;58876;51.994;4.472;2023-10-31T08:32:57;13.43;86.64
71175;DHT22;58876;51.994;4.472;2023-10-31T08:35:23;13.27;86.18
71175;DHT22;58876;51.994;4.472;2023-10-31T08:37:48;13.36;86.60
71175;DHT22;58876;51.994;4.472;2023-10-31T08:40:13;13.37;86.54
71175;DHT22;58876;51.994;4.472;2023-10-31T08:42:39;13.07;86.84
71175;DHT22;58876;51.994;4.472;2023-10-31T08:45:05;13.14;87.36
71175;DHT22;58876;51.994;4.472;2023-10-31T08:47:30;13.23;87.15
71175;DHT22;58876;51.994;4.472;2023-10-31T08:49:56;13.37;86.93
71175;DHT22;58876;51.994;4.472;2023-10-31T08:52:21;13.27;86.75
71175;DHT22;58876;51.994;4.472;2023-10-31T08:54:47;13.34;86.47
71175;DHT22;58876;51.994;4.472;2023-10-31T08:57:13;13.23;86.28
71175;DHT22;58876;51.994;4.472;2023-10-31T08:59:39;13.14;86.06
71175;DHT22;58876;51.994;4.472;2023-10-31T09:02:05;13.03;85.92
71175;DHT22;58876;51.994;4.472;2023-10-31T09:04:30;13.24;86.20
71175;DHT22;58876;51.994;4.472;2023-10-31T09:06:56;13.20;84.81
71175;DHT22;58876;51.994;4.472;2023-10-31T09:09:21;13.14;84.07
71175;DHT22;58876;51.994;4.472;2023-10-31T09:11:47;12.97;83.94
71175;DHT22;58876;51.994;4.472;2023-10-31T09:14:12;12.90;84.12
71175;DHT22;58876;51.994;4.472;2023-10-31T09:16:37;12.79;84.57
71175;DHT22;58876;51.994;4.472;2023-10-31T09:19:03;12.86;84.72
71175;DHT22;58876;51.994;4.472;2023-10-31T09:21:29;12.85;84.22
71175;DHT22;58876;51.994;4.472;2023-10-31T09:23:54;12.80;84.16
71175;DHT22;58876;51.994;4.472;2023-10-31T09:26:20;12.79;84.26
71175;DHT22;58876;51.994;4.472;2023-10-31T09:28:45;12.93;84.27
71175;DHT22;58876;51.994;4.472;2023-10-31T09:31:18;12.96;83.92
71175;DHT22;58876;51.994;4.472;2023-10-31T09:33:45;13.09;83.70
71175;DHT22;58876;51.994;4.472;2023-10-31T09:36:11;13.26;84.20
71175;DHT22;58876;51.994;4.472;2023-10-31T09:38:36;13.38;84.26
71175;DHT22;58876;51.994;4.472;2023-10-31T09:41:02;13.57;84.31
71175;DHT22;58876;51.994;4.472;2023-10-31T09:43:28;13.74;83.64
71175;DHT22;58876;51.994;4.472;2023-10-31T09:45:54;13.82;83.67
71175;DHT22;58876;51.994;4.472;2023-10-31T09:48:21;14.01;83.59
71175;DHT22;58876;51.994;4.472;2023-10-31T09:50:46;14.12;82.97
71175;DHT22;58876;51.994;4.472;2023-10-31T09:53:14;14.09;83.40
71175;DHT22;58876;51.994;4.472;2023-10-31T09:55:41;13.75;83.82
71175;DHT22;58876;51.994;4.472;2023-10-31T09:58:06;13.61;84.36
71175;DHT22;58876;51.994;4.472;2023-10-31T10:00:32;13.51;84.76
71175;DHT22;58876;51.994;4.472;2023-10-31T10:02:58;13.61;84.97
71175;DHT22;58876;51.994;4.472;2023-10-31T10:05:23;13.74;84.76
71175;DHT22;58876;51.994;4.472;2023-10-31T10:07:50;13.74;84.55
71175;DHT22;58876;51.994;4.472;2023-10-31T10:10:16;13.82;84.80
71175;DHT22;58876;51.994;4.472;2023-10-31T10:12:42;13.79;84.57
71175;DHT22;58876;51.994;4.472;2023-10-31T10:15:10;13.67;84.78
71175;DHT22;58876;51.994;4.472;2023-10-31T10:17:35;13.68;84.51
71175;DHT22;58876;51.994;4.472;2023-10-31T10:20:11;13.43;84.95
71175;DHT22;58876;51.994;4.472;2023-10-31T10:22:38;13.44;85.40
71175;DHT22;58876;51.994;4.472;2023-10-31T10:25:06;13.44;85.90
71175;DHT22;58876;51.994;4.472;2023-10-31T10:27:32;13.48;86.08
71175;DHT22;58876;51.994;4.472;2023-10-31T10:29:57;13.48;86.05
71175;DHT22;58876;51.994;4.472;2023-10-31T10:32:23;13.54;86.13
71175;DHT22;58876;51.994;4.472;2023-10-31T10:34:48;13.64;86.31
71175;DHT22;58876;51.994;4.472;2023-10-31T10:37:16;13.72;85.51
71175;DHT22;58876;51.994;4.472;2023-10-31T10:39:47;13.75;85.21
71175;DHT22;58876;51.994;4.472;2023-10-31T10:42:17;13.64;84.81
71175;DHT22;58876;51.994;4.472;2023-10-31T10:44:44;13.74;84.88
71175;DHT22;58876;51.994;4.472;2023-10-31T10:47:12;13.92;84.81
71175;DHT22;58876;51.994;4.472;2023-10-31T10:49:41;13.99;84.43
71175;DHT22;58876;51.994;4.472;2023-10-31T10:52:23;14.29;84.53
71175;DHT22;58876;51.994;4.472;2023-10-31T10:54:58;14.56;83.64
71175;DHT22;58876;51.994;4.472;2023-10-31T10:57:37;14.47;83.16
71175;DHT22;58876;51.994;4.472;2023-10-31T11:00:06;14.17;84.19
71175;DHT22;58876;51.994;4.472;2023-10-31T11:02:39;13.96;85.00
71175;DHT22;58876;51.994;4.472;2023-10-31T11:05:06;13.88;85.40
71175;DHT22;58876;51.994;4.472;2023-10-31T11:07:38;13.72;85.85
71175;DHT22;58876;51.994;4.472;2023-10-31T11:10:04;13.85;86.28
71175;DHT22;58876;51.994;4.472;2023-10-31T11:12:32;13.59;86.01
71175;DHT22;58876;51.994;4.472;2023-10-31T11:14:59;13.64;86.55
71175;DHT22;58876;51.994;4.472;2023-10-31T11:17:32;14.04;86.41
71175;DHT22;58876;51.994;4.472;2023-10-31T11:20:00;13.74;85.39
71175;DHT22;58876;51.994;4.472;2023-10-31T11:22:25;14.05;86.51
71175;DHT22;58876;51.994;4.472;2023-10-31T11:24:51;14.05;85.89
71175;DHT22;58876;51.994;4.472;2023-10-31T11:27:18;14.23;85.46
71175;DHT22;58876;51.994;4.472;2023-10-31T11:29:44;14.59;84.81
71175;DHT22;58876;51.994;4.472;2023-10-31T11:32:11;14.23;84.14
71175;DHT22;58876;51.994;4.472;2023-10-31T11:34:41;14.30;84.53
71175;DHT22;58876;51.994;4.472;2023-10-31T11:42:47;14.44;83.95
71175;DHT22;58876;51.994;4.472;2023-10-31T11:45:25;14.47;83.72
71175;DHT22;58876;51.994;4.472;2023-10-31T11:47:51;14.41;83.79
71175;DHT22;58876;51.994;4.472;2023-10-31T11:50:17;14.22;83.79
71175;DHT22;58876;51.994;4.472;2023-10-31T11:52:43;14.53;84.25
71175;DHT22;58876;51.994;4.472;2023-10-31T11:55:12;14.22;83.97
71175;DHT22;58876;51.994;4.472;2023-10-31T11:57:39;14.02;84.40
71175;DHT22;58876;51.994;4.472;2023-10-31T12:00:05;14.01;84.29
71175;DHT22;58876;51.994;4.472;2023-10-31T12:02:31;13.88;84.45
71175;DHT22;58876;51.994;4.472;2023-10-31T12:05:12;13.85;84.64
71175;DHT22;58876;51.994;4.472;2023-10-31T12:07:45;13.71;85.01
71175;DHT22;58876;51.994;4.472;2023-10-31T12:10:12;13.74;84.27
71175;DHT22;58876;51.994;4.472;2023-10-31T12:12:38;13.65;84.51
71175;DHT22;58876;51.994;4.472;2023-10-31T12:15:07;13.74;84.51
71175;DHT22;58876;51.994;4.472;2023-10-31T12:17:36;13.98;84.60
71175;DHT22;58876;51.994;4.472;2023-10-31T12:20:06;13.99;84.07
71175;DHT22;58876;51.994;4.472;2023-10-31T12:22:33;13.88;84.16
71175;DHT22;58876;51.994;4.472;2023-10-31T12:25:03;13.75;84.35
71175;DHT22;58876;51.994;4.472;2023-10-31T12:27:49;13.59;84.37
71175;DHT22;58876;51.994;4.472;2023-10-31T12:30:17;13.75;84.67
71175;DHT22;58876;51.994;4.472;2023-10-31T12:32:44;13.89;84.35
71175;DHT22;58876;51.994;4.472;2023-10-31T12:35:21;13.81;84.00
71175;DHT22;58876;51.994;4.472;2023-10-31T12:37:49;13.96;83.77
71175;DHT22;58876;51.994;4.472;2023-10-31T12:40:17;13.90;83.74
71175;DHT22;58876;51.994;4.472;2023-10-31T12:42:45;13.75;83.74
71175;DHT22;58876;51.994;4.472;2023-10-31T12:45:14;13.74;83.55
71175;DHT22;58876;51.994;4.472;2023-10-31T12:47:40;13.71;83.59
71175;DHT22;58876;51.994;4.472;2023-10-31T12:50:16;13.76;83.26
71175;DHT22;58876;51.994;4.472;2023-10-31T12:52:52;13.62;83.36
71175;DHT22;58876;51.994;4.472;2023-10-31T12:55:23;13.81;83.32
71175;DHT22;58876;51.994;4.472;2023-10-31T12:57:50;13.79;83.64
71175;DHT22;58876;51.994;4.472;2023-10-31T13:00:18;13.75;83.25
71175;DHT22;58876;51.994;4.472;2023-10-31T13:02:50;13.76;83.50
71175;DHT22;58876;51.994;4.472;2023-10-31T13:05:16;13.75;83.52
71175;DHT22;58876;51.994;4.472;2023-10-31T13:07:49;13.51;83.94
71175;DHT22;58876;51.994;4.472;2023-10-31T13:10:16;13.51;84.36
71175;DHT22;58876;51.994;4.472;2023-10-31T13:12:49;13.43;84.49
71175;DHT22;58876;51.994;4.472;2023-10-31T13:15:15;13.43;84.43
71175;DHT22;58876;51.994;4.472;2023-10-31T13:17:41;13.43;84.69
71175;DHT22;58876;51.994;4.472;2023-10-31T13:20:09;13.27;84.30
71175;DHT22;58876;51.994;4.472;2023-10-31T13:22:38;13.04;85.21
71175;DHT22;58876;51.994;4.472;2023-10-31T13:25:06;12.97;84.79
71175;DHT22;58876;51.994;4.472;2023-10-31T13:27:33;12.93;85.27
71175;DHT22;58876;51.994;4.472;2023-10-31T13:30:01;12.92;84.55
71175;DHT22;58876;51.994;4.472;2023-10-31T13:32:26;12.92;84.87
71175;DHT22;58876;51.994;4.472;2023-10-31T13:34:52;12.96;84.88
71175;DHT22;58876;51.994;4.472;2023-10-31T13:37:17;13.11;84.56
71175;DHT22;58876;51.994;4.472;2023-10-31T13:39:43;13.11;84.65
71175;DHT22;58876;51.994;4.472;2023-10-31T13:42:08;13.11;84.07
71175;DHT22;58876;51.994;4.472;2023-10-31T13:44:36;12.78;85.16
71175;DHT22;58876;51.994;4.472;2023-10-31T13:47:02;12.65;85.39
71175;DHT22;58876;51.994;4.472;2023-10-31T13:49:28;12.69;85.37
71175;DHT22;58876;51.994;4.472;2023-10-31T13:51:54;12.82;85.14
71175;DHT22;58876;51.994;4.472;2023-10-31T13:54:19;12.95;84.61
71175;DHT22;58876;51.994;4.472;2023-10-31T13:56:45;12.86;84.82
71175;DHT22;58876;51.994;4.472;2023-10-31T13:59:11;12.87;84.95
71175;DHT22;58876;51.994;4.472;2023-10-31T14:01:36;12.87;84.81
71175;DHT22;58876;51.994;4.472;2023-10-31T14:04:02;12.79;84.73
71175;DHT22;58876;51.994;4.472;2023-10-31T14:06:28;12.59;85.40
71175;DHT22;58876;51.994;4.472;2023-10-31T14:08:57;12.62;86.04
71175;DHT22;58876;51.994;4.472;2023-10-31T14:11:23;12.53;85.99
71175;DHT22;58876;51.994;4.472;2023-10-31T14:13:49;12.52;86.23
71175;DHT22;58876;51.994;4.472;2023-10-31T14:16:16;12.44;86.48
71175;DHT22;58876;51.994;4.472;2023-10-31T14:18:41;12.49;86.65
71175;DHT22;58876;51.994;4.472;2023-10-31T14:21:08;12.56;86.57
71175;DHT22;58876;51.994;4.472;2023-10-31T14:23:34;12.63;86.60
71175;DHT22;58876;51.994;4.472;2023-10-31T14:26:00;12.55;86.60
71175;DHT22;58876;51.994;4.472;2023-10-31T14:28:25;12.58;87.09
71175;DHT22;58876;51.994;4.472;2023-10-31T14:30:50;12.53;86.95
71175;DHT22;58876;51.994;4.472;2023-10-31T14:33:18;12.50;86.97
71175;DHT22;58876;51.994;4.472;2023-10-31T14:35:43;12.37;86.98
71175;DHT22;58876;51.994;4.472;2023-10-31T14:38:09;12.29;87.68
71175;DHT22;58876;51.994;4.472;2023-10-31T14:40:34;12.39;87.16
71175;DHT22;58876;51.994;4.472;2023-10-31T14:43:00;12.38;87.49
71175;DHT22;58876;51.994;4.472;2023-10-31T14:45:26;12.49;87.25
71175;DHT22;58876;51.994;4.472;2023-10-31T14:47:52;12.53;86.82
71175;DHT22;58876;51.994;4.472;2023-10-31T14:50:18;12.56;87.17
71175;DHT22;58876;51.994;4.472;2023-10-31T14:52:46;12.69;87.22
71175;DHT22;58876;51.994;4.472;2023-10-31T14:55:13;12.83;86.74
71175;DHT22;58876;51.994;4.472;2023-10-31T14:57:38;12.83;86.62
71175;DHT22;58876;51.994;4.472;2023-10-31T15:00:05;12.63;86.33
71175;DHT22;58876;51.994;4.472;2023-10-31T15:02:32;12.48;86.74
71175;DHT22;58876;51.994;4.472;2023-10-31T15:04:59;12.60;87.00
71175;DHT22;58876;51.994;4.472;2023-10-31T15:07:25;12.53;86.99
71175;DHT22;58876;51.994;4.472;2023-10-31T15:09:50;12.44;86.62
71175;DHT22;58876;51.994;4.472;2023-10-31T15:12:16;12.37;86.72
71175;DHT22;58876;51.994;4.472;2023-10-31T15:14:42;12.25;86.68
71175;DHT22;58876;51.994;4.472;2023-10-31T15:17:07;12.25;87.34
71175;DHT22;58876;51.994;4.472;2023-10-31T15:19:33;12.22;87.17
71175;DHT22;58876;51.994;4.472;2023-10-31T15:21:58;12.42;87.23
71175;DHT22;58876;51.994;4.472;2023-10-31T15:24:24;12.56;86.78
71175;DHT22;58876;51.994;4.472;2023-10-31T15:26:49;12.46;86.93
71175;DHT22;58876;51.994;4.472;2023-10-31T15:29:15;12.52;86.97